Time;durP1;ratioP1;P1;durP2;ratioP2;P2;SDS_P1;SDS_P2;PMS_P1;PMS_P2;Temp;Humidity;BMP_temperature;BMP_pressure;BME280_temperature;BME280_humidity;BME280_pressure;Samples;Min_cycle;Max_cycle;Signal;HPM_P1;HPM_P2
2022/04/06 00:02:38;;;;;;;;;;;1.10;99.90;212.10;228463.00;;;;3;82528119;82528559;-62
2022/04/06 00:07:04;;;;;;;;;;;1.10;99.90;212.10;228463.00;;;;3;78025966;82527991;-60
2022/04/06 00:11:24;;;;;;;;;;;1.10;99.90;212.10;228463.00;;;;3;75024057;78026234;-60
2022/04/06 00:15:43;;;;;;;;;;;1.10;99.90;212.10;228463.00;;;;3;75025128;82525890;-62
2022/04/06 00:20:10;;;;;;;;;;;1.20;99.90;212.10;228463.00;;;;3;84028875;84029010;-62
2022/04/06 00:24:36;;;;;;;;;;;1.20;99.90;212.10;228463.00;;;;3;78027960;82527986;-62
2022/04/06 00:28:56;;;;;;;;;;;1.20;99.90;212.10;228463.00;;;;3;75026980;78027062;-63
2022/04/06 00:33:15;;;;;;;;;;;1.20;99.90;212.10;228463.00;;;;3;75026261;82528459;-62
2022/04/06 00:37:39;;;;;;;;;;;1.20;99.90;212.10;228463.00;;;;3;82527924;82527953;-62
2022/04/06 00:42:06;;;;;;;;;;;1.30;99.90;212.10;228463.00;;;;3;78027776;82528037;-62
2022/04/06 00:46:25;;;;;;;;;;;1.30;99.90;212.10;228463.00;;;;3;75027273;78027170;-62
2022/04/06 00:50:45;;;;;;;;;;;1.30;99.90;212.10;228463.00;;;;3;75025764;82528502;-63
2022/04/06 00:55:09;;;;;;;;;;;1.30;99.90;212.10;228463.00;;;;3;82526596;82529269;-62
2022/04/06 00:59:41;;;;;;;;;;;1.30;99.90;212.10;228463.00;;;;3;78030313;82527877;-63
2022/04/06 01:04:01;;;;;;;;;;;1.30;99.90;212.10;228463.00;;;;3;75025103;78025488;-62
2022/04/06 01:08:22;;;;;;;;;;;1.30;99.90;212.10;228463.00;;;;3;75025118;84028484;-63
2022/04/06 01:12:47;;;;;;;;;;;1.30;99.90;212.10;228463.00;;;;3;82526493;82528348;-63
2022/04/06 01:17:23;;;;;;;;;;;1.30;99.90;212.10;228463.00;;;;3;78027409;82529011;-62
2022/04/06 01:21:43;;;;;;;;;;;1.30;99.90;212.10;228463.00;;;;3;75026051;78026715;-62
2022/04/06 01:26:02;;;;;;;;;;;1.30;99.90;212.10;228463.00;;;;3;75023965;82526905;-62
2022/04/06 01:30:26;;;;;;;;;;;1.30;99.90;212.10;228463.00;;;;3;82526793;82528013;-62
2022/04/06 01:34:56;;;;;;;;;;;1.30;99.90;212.10;228463.00;;;;3;78026741;82526451;-61
2022/04/06 01:39:15;;;;;;;;;;;1.30;99.90;212.10;228463.00;;;;3;75026038;78026181;-62
2022/04/06 01:43:34;;;;;;;;;;;1.30;99.90;212.10;228463.00;;;;3;75026466;82527586;-62
2022/04/06 01:48:01;;;;;;;;;;;1.30;99.90;212.10;228463.00;;;;3;84025971;84026400;-62
2022/04/06 01:52:27;;;;;;;;;;;1.30;99.90;212.10;228463.00;;;;3;78025750;82528488;-61
2022/04/06 01:56:46;;;;;;;;;;;1.30;99.90;212.10;228463.00;;;;3;75025389;78029460;-62
2022/04/06 02:01:06;;;;;;;;;;;1.40;99.90;212.10;228463.00;;;;3;75025266;82526573;-62
2022/04/06 02:05:33;;;;;;;;;;;1.30;99.90;212.10;228463.00;;;;3;82526231;82528039;-60
2022/04/06 02:10:02;;;;;;;;;;;1.30;99.90;212.10;228463.00;;;;3;78025819;82527054;-60
2022/04/06 02:14:23;;;;;;;;;;;1.30;99.90;212.10;228463.00;;;;3;75024445;78027053;-60
2022/04/06 02:18:42;;;;;;;;;;;1.20;99.90;212.10;228463.00;;;;3;75026777;82527284;-62
2022/04/06 02:23:06;;;;;;;;;;;1.00;99.90;212.10;228463.00;;;;3;82526885;82528433;-60
2022/04/06 02:27:33;;;;;;;;;;;0.90;99.90;212.10;228463.00;;;;3;78028194;82526885;-60
2022/04/06 02:31:54;;;;;;;;;;;0.90;99.90;212.10;228463.00;;;;3;75024803;78027517;-61
2022/04/06 02:36:15;;;;;;;;;;;0.90;99.90;212.10;228463.00;;;;3;75024696;84028607;-59
2022/04/06 02:40:38;;;;;;;;;;;0.90;99.90;212.10;228463.00;;;;3;82528876;82529558;-60
2022/04/06 02:45:05;;;;;;;;;;;0.90;99.90;212.10;228463.00;;;;3;78026111;82527460;-60
2022/04/06 02:49:24;;;;;;;;;;;0.80;99.90;212.10;228463.00;;;;3;75025740;78024345;-60
2022/04/06 02:53:43;;;;;;;;;;;0.70;99.90;212.10;228463.00;;;;3;75024344;82527273;-63
2022/04/06 02:58:07;;;;;;;;;;;0.70;99.90;212.10;228463.00;;;;3;82526130;82527821;-62
2022/04/06 03:02:34;;;;;;;;;;;0.60;99.90;212.10;228463.00;;;;3;78027453;82526854;-64
2022/04/06 03:06:53;;;;;;;;;;;0.60;99.90;212.10;228463.00;;;;3;75028154;78026276;-64
2022/04/06 03:11:12;;;;;;;;;;;0.60;99.90;212.10;228463.00;;;;3;75025439;82527178;-55
2022/04/06 03:15:39;;;;;;;;;;;0.60;99.90;212.10;228463.00;;;;3;84026737;84029058;-65
2022/04/06 03:20:05;;;;;;;;;;;0.50;99.90;212.10;228463.00;;;;3;78030600;82528814;-63
2022/04/06 03:24:24;;;;;;;;;;;0.50;99.90;212.10;228463.00;;;;3;75024611;78027101;-61
2022/04/06 03:28:44;;;;;;;;;;;0.50;99.90;212.10;228463.00;;;;3;75025609;82526693;-60
2022/04/06 03:33:09;;;;;;;;;;;0.50;99.90;212.10;228463.00;;;;3;82527413;82529337;-59
2022/04/06 03:37:35;;;;;;;;;;;0.50;99.90;212.10;228463.00;;;;3;78028093;82529412;-61
2022/04/06 03:41:54;;;;;;;;;;;0.50;99.90;212.10;228463.00;;;;3;75026097;78027515;-56
2022/04/06 03:46:14;;;;;;;;;;;0.50;99.90;212.10;228463.00;;;;3;75025447;82528471;-57
2022/04/06 03:50:38;;;;;;;;;;;0.40;99.90;212.10;228463.00;;;;3;82527135;82529155;-59
2022/04/06 03:55:07;;;;;;;;;;;0.40;99.90;212.10;228463.00;;;;3;78028283;82528764;-57
2022/04/06 03:59:27;;;;;;;;;;;0.40;99.90;212.10;228463.00;;;;3;75025487;78028466;-60
2022/04/06 04:03:48;;;;;;;;;;;0.50;99.90;212.10;228463.00;;;;3;75026389;84027755;-60
2022/04/06 04:08:12;;;;;;;;;;;0.60;99.90;212.10;228463.00;;;;3;82526889;82528272;-59
2022/04/06 04:12:39;;;;;;;;;;;0.70;99.90;212.10;228463.00;;;;3;78027133;82529697;-59
2022/04/06 04:16:58;;;;;;;;;;;0.80;99.90;212.10;228463.00;;;;3;75025638;78026909;-60
2022/04/06 04:21:32;;;;;;;;;;;0.70;99.90;212.10;228463.00;;;;3;75025823;82529765;-60
2022/04/06 04:25:56;;;;;;;;;;;0.70;99.90;212.10;228463.00;;;;3;82527487;82528929;-55
2022/04/06 04:30:22;;;;;;;;;;;0.60;99.90;212.10;228463.00;;;;3;78027777;82526639;-54
2022/04/06 04:34:42;;;;;;;;;;;0.60;99.90;212.10;228463.00;;;;3;75026430;78025964;-59
2022/04/06 04:39:02;;;;;;;;;;;1.00;99.90;212.10;228463.00;;;;3;75025630;82527781;-55
2022/04/06 04:43:29;;;;;;;;;;;1.10;99.90;212.10;228463.00;;;;3;84027957;84030253;-54
2022/04/06 04:47:57;;;;;;;;;;;1.10;99.90;212.10;228463.00;;;;3;78027357;82528164;-55
2022/04/06 04:52:16;;;;;;;;;;;1.00;99.90;212.10;228463.00;;;;3;75025892;78027936;-56
2022/04/06 04:56:35;;;;;;;;;;;1.30;99.90;212.10;228463.00;;;;3;75025373;82528632;-55
2022/04/06 05:00:59;;;;;;;;;;;1.70;99.90;212.10;228463.00;;;;3;82526891;82529977;-57
2022/04/06 05:05:29;;;;;;;;;;;2.10;99.90;212.10;228463.00;;;;3;78027294;82527067;-56
2022/04/06 05:09:49;;;;;;;;;;;1.90;99.90;212.10;228463.00;;;;3;75025068;78026641;-55
2022/04/06 05:14:09;;;;;;;;;;;1.60;99.90;212.10;228463.00;;;;3;75023613;82528123;-54
2022/04/06 05:18:33;;;;;;;;;;;1.50;99.90;212.10;228463.00;;;;3;82526669;82527101;-57
2022/04/06 05:23:00;;;;;;;;;;;1.60;99.90;212.10;228463.00;;;;3;78027110;82528016;-57
2022/04/06 05:27:20;;;;;;;;;;;1.70;99.90;212.10;228463.00;;;;3;75024613;78027362;-58
2022/04/06 05:31:41;;;;;;;;;;;1.60;99.90;212.10;228463.00;;;;3;75026703;84029045;-57
2022/04/06 05:36:05;;;;;;;;;;;1.50;99.90;212.10;228463.00;;;;3;82525699;82527840;-60
2022/04/06 05:40:32;;;;;;;;;;;1.20;99.90;212.10;228463.00;;;;3;78026408;82527671;-62
2022/04/06 05:44:51;;;;;;;;;;;1.20;99.90;212.10;228463.00;;;;3;75026511;78027114;-61
2022/04/06 05:49:10;;;;;;;;;;;1.30;99.90;212.10;228463.00;;;;3;75024013;82525994;-59
2022/04/06 05:53:34;;;;;;;;;;;1.40;99.90;212.10;228463.00;;;;3;82527609;82528627;-60
2022/04/06 05:58:01;;;;;;;;;;;1.70;99.90;212.10;228463.00;;;;3;78027084;82528170;-59
2022/04/06 06:02:23;;;;;;;;;;;1.90;99.90;212.10;228463.00;;;;3;75025027;78033375;-59
2022/04/06 06:06:42;;;;;;;;;;;2.00;99.90;212.10;228463.00;;;;3;75024405;82528002;-58
2022/04/06 06:11:09;;;;;;;;;;;2.10;99.90;212.10;228463.00;;;;3;84026737;84027701;-58
2022/04/06 06:15:36;;;;;;;;;;;1.90;99.90;212.10;228463.00;;;;3;78026153;82529385;-60
2022/04/06 06:19:55;;;;;;;;;;;1.80;99.90;212.10;228463.00;;;;3;75026976;78027094;-59
2022/04/06 06:24:14;;;;;;;;;;;1.60;99.90;212.10;228463.00;;;;3;75026611;82526538;-58
2022/04/06 06:28:39;;;;;;;;;;;1.90;99.90;212.10;228463.00;;;;3;82527857;82528026;-55
2022/04/06 06:33:05;;;;;;;;;;;1.80;99.90;212.10;228463.00;;;;3;78027309;82528138;-64
2022/04/06 06:37:24;;;;;;;;;;;1.80;99.90;212.10;228463.00;;;;3;75025250;78027298;-63
2022/04/06 06:41:45;;;;;;;;;;;2.00;99.90;212.10;228463.00;;;;3;75025553;82527601;-64
2022/04/06 06:46:09;;;;;;;;;;;2.10;99.90;212.10;228463.00;;;;3;82528833;82528835;-64
2022/04/06 06:50:37;;;;;;;;;;;2.00;99.90;212.10;228463.00;;;;3;78027072;82529476;-63
2022/04/06 06:54:57;;;;;;;;;;;2.10;99.90;212.10;228463.00;;;;3;75025103;78028416;-64
2022/04/06 06:59:18;;;;;;;;;;;2.50;99.90;212.10;228463.00;;;;3;75026229;84025386;-64
2022/04/06 07:03:41;;;;;;;;;;;2.50;99.90;212.10;228463.00;;;;3;82528134;82529124;-65
2022/04/06 07:08:15;;;;;;;;;;;2.50;99.90;212.10;228463.00;;;;3;78026969;82525140;-63
2022/04/06 07:12:34;;;;;;;;;;;2.60;99.90;212.10;228463.00;;;;3;75026483;78027643;-63
2022/04/06 07:16:54;;;;;;;;;;;2.60;99.90;212.10;228463.00;;;;3;75024544;82526704;-63
2022/04/06 07:21:18;;;;;;;;;;;2.80;99.90;212.10;228463.00;;;;3;82528278;82529069;-65
2022/04/06 07:25:44;;;;;;;;;;;2.80;99.90;212.10;228463.00;;;;3;78028574;82526231;-63
2022/04/06 07:30:04;;;;;;;;;;;2.90;99.90;212.10;228463.00;;;;3;75026752;78026503;-62
2022/04/06 07:34:23;;;;;;;;;;;3.10;99.90;212.10;228463.00;;;;3;75025235;82528482;-63
2022/04/06 07:38:50;;;;;;;;;;;3.00;99.90;212.10;228463.00;;;;3;84027654;84029561;-63
2022/04/06 07:43:16;;;;;;;;;;;3.10;99.90;212.10;228463.00;;;;3;78026758;82526551;-63
2022/04/06 07:47:37;;;;;;;;;;;3.30;99.60;212.10;228463.00;;;;3;75024682;78026479;-63
2022/04/06 07:51:56;;;;;;;;;;;3.30;99.90;212.10;228463.00;;;;3;75026978;82526043;-63
2022/04/06 07:56:20;;;;;;;;;;;3.40;99.90;212.10;228463.00;;;;3;82526884;82528686;-63
2022/04/06 08:00:47;;;;;;;;;;;3.40;97.70;212.10;228463.00;;;;3;78026826;82527632;-64
2022/04/06 08:05:06;;;;;;;;;;;3.30;98.30;212.10;228463.00;;;;3;75026008;78029230;-64
2022/04/06 08:09:25;;;;;;;;;;;3.20;98.80;212.10;228463.00;;;;3;75024174;82527145;-64
2022/04/06 08:13:49;;;;;;;;;;;3.50;98.60;212.10;228463.00;;;;3;82526642;82527745;-65
2022/04/06 08:18:16;;;;;;;;;;;3.90;97.70;212.10;228463.00;;;;3;78027606;82529011;-62
2022/04/06 08:22:40;;;;;;;;;;;3.90;97.20;212.10;228463.00;;;;3;75027017;78027819;-66
2022/04/06 08:27:09;;;;;;;;;;;3.70;94.50;212.10;228463.00;;;;3;75027674;84031664;-63
2022/04/06 08:31:33;;;;;;;;;;;3.80;95.40;212.10;228463.00;;;;3;82526173;82529134;-64
2022/04/06 08:36:03;;;;;;;;;;;3.90;95.80;212.10;228463.00;;;;3;78027647;82528340;-63
2022/04/06 08:40:22;;;;;;;;;;;3.90;96.40;212.10;228463.00;;;;3;75024130;78027121;-63
2022/04/06 08:44:41;;;;;;;;;;;4.10;95.30;212.10;228463.00;;;;3;75025359;82527210;-64
2022/04/06 08:49:05;;;;;;;;;;;4.00;94.30;212.10;228463.00;;;;3;82528445;82528920;-64
2022/04/06 08:53:32;;;;;;;;;;;4.00;96.50;212.10;228463.00;;;;3;78028388;82527272;-64
2022/04/06 08:57:51;;;;;;;;;;;4.20;97.00;212.10;228463.00;;;;3;75025974;78028592;-63
2022/04/06 09:02:11;;;;;;;;;;;4.30;95.40;212.10;228463.00;;;;3;75023762;82526994;-62
2022/04/06 09:07:57;;;;;;;;;;;4.30;93.20;212.10;228463.00;;;;3;84027667;84029076;-63
2022/04/06 09:12:29;;;;;;;;;;;4.30;92.10;212.10;228463.00;;;;3;78029006;82529046;-63
2022/04/06 09:16:59;;;;;;;;;;;4.10;83.40;212.10;228463.00;;;;3;75027320;78029164;-63
2022/04/06 09:21:22;;;;;;;;;;;4.20;85.00;212.10;228463.00;;;;3;75025108;82527542;-64
2022/04/06 09:25:45;;;;;;;;;;;4.40;90.00;212.10;228463.00;;;;3;82526451;82529207;-63
2022/04/06 09:30:12;;;;;;;;;;;4.60;89.40;212.10;228463.00;;;;3;78026442;82527527;-63
2022/04/06 09:34:34;;;;;;;;;;;4.60;87.70;212.10;228463.00;;;;3;75025240;78028022;-63
2022/04/06 09:38:53;;;;;;;;;;;4.50;84.80;212.10;228463.00;;;;3;75024949;82527580;-64
2022/04/06 09:43:23;;;;;;;;;;;4.40;80.50;212.10;228463.00;;;;3;82527719;82528738;-65
2022/04/06 09:47:51;;;;;;;;;;;4.50;85.90;212.10;228463.00;;;;3;78027517;82526682;-64
2022/04/06 09:52:13;;;;;;;;;;;4.70;93.00;212.10;228463.00;;;;3;75026894;78027341;-64
2022/04/06 09:56:34;;;;;;;;;;;5.00;94.10;212.10;228463.00;;;;3;75027382;84030282;-64
2022/04/06 10:00:58;;;;;;;;;;;4.90;92.80;212.10;228463.00;;;;3;82526968;82528669;-64
2022/04/06 10:05:25;;;;;;;;;;;4.90;91.70;212.10;228463.00;;;;3;78027176;82527080;-64
2022/04/06 10:09:47;;;;;;;;;;;5.00;92.30;212.10;228463.00;;;;3;75024912;78028001;-63
2022/04/06 10:14:06;;;;;;;;;;;5.20;90.90;212.10;228463.00;;;;3;75023494;82527930;-64
2022/04/06 10:18:31;;;;;;;;;;;5.20;92.20;212.10;228463.00;;;;3;82527635;82528359;-64
2022/04/06 10:23:04;;;;;;;;;;;5.30;91.50;212.10;228463.00;;;;3;78028210;82529496;-64
2022/04/06 10:27:47;;;;;;;;;;;5.40;89.80;212.10;228463.00;;;;3;75025953;78026432;-63
2022/04/06 10:32:26;;;;;;;;;;;5.20;90.70;212.10;228463.00;;;;3;75027405;82527958;-65
2022/04/06 10:37:10;;;;;;;;;;;5.30;90.50;212.10;228463.00;;;;3;84029203;84029224;-64
2022/04/06 10:41:39;;;;;;;;;;;5.50;86.90;212.10;228463.00;;;;3;78028173;82525836;-64
2022/04/06 10:45:59;;;;;;;;;;;5.30;82.90;212.10;228463.00;;;;3;75025596;78025899;-64
2022/04/06 10:50:30;;;;;;;;;;;5.20;75.70;212.10;228463.00;;;;3;75023544;82527685;-64
2022/04/06 10:55:09;;;;;;;;;;;5.20;85.90;212.10;228463.00;;;;3;82527958;82528578;-65
2022/04/06 10:59:38;;;;;;;;;;;5.20;87.70;212.10;228463.00;;;;3;78027802;82531046;-65
2022/04/06 11:04:06;;;;;;;;;;;5.20;86.70;212.10;228463.00;;;;3;75025878;78026747;-64
2022/04/06 11:13:27;;;;;;;;;;;5.20;85.50;212.10;228463.00;;;;3;82528202;82528291;-64
2022/04/06 11:17:54;;;;;;;;;;;5.30;82.90;212.10;228463.00;;;;3;78027029;82527978;-66
2022/04/06 11:22:16;;;;;;;;;;;5.30;80.90;212.10;228463.00;;;;3;75024388;78029053;-64
2022/04/06 11:26:37;;;;;;;;;;;5.40;85.10;212.10;228463.00;;;;3;75026924;84029405;-65
2022/04/06 11:31:07;;;;;;;;;;;5.50;78.10;212.10;228463.00;;;;3;82527766;82529754;-64
2022/04/06 11:35:36;;;;;;;;;;;5.40;76.80;212.10;228463.00;;;;3;78027132;82528247;-64
2022/04/06 11:39:59;;;;;;;;;;;5.50;74.30;212.10;228463.00;;;;3;75024969;78025850;-63
2022/04/06 11:44:19;;;;;;;;;;;5.40;74.60;212.10;228463.00;;;;3;75024631;82528369;-63
2022/04/06 11:48:45;;;;;;;;;;;5.50;75.20;212.10;228463.00;;;;3;82528359;82528820;-63
2022/04/06 11:53:15;;;;;;;;;;;5.50;80.40;212.10;228463.00;;;;3;78028850;82527346;-62
2022/04/06 11:57:36;;;;;;;;;;;5.40;77.10;212.10;228463.00;;;;3;75025945;78028418;-63
2022/04/06 12:02:03;;;;;;;;;;;5.50;74.40;212.10;228463.00;;;;3;75025981;82529088;-65
2022/04/06 12:06:35;;;;;;;;;;;5.60;73.00;212.10;228463.00;;;;3;84027549;84030310;-64
2022/04/06 12:11:11;;;;;;;;;;;5.50;72.10;212.10;228463.00;;;;3;78028279;82528756;-65
2022/04/06 12:15:31;;;;;;;;;;;5.70;64.20;212.10;228463.00;;;;3;75025526;78028724;-58
2022/04/06 12:19:53;;;;;;;;;;;5.70;72.10;212.10;228463.00;;;;3;75026095;82528849;-59
2022/04/06 12:24:20;;;;;;;;;;;5.70;72.20;212.10;228463.00;;;;3;82527416;82529480;-58
2022/04/06 12:28:48;;;;;;;;;;;5.60;61.50;212.10;228463.00;;;;3;78027508;82528597;-59
2022/04/06 12:33:08;;;;;;;;;;;5.70;64.60;212.10;228463.00;;;;3;75024127;78027440;-59
2022/04/06 12:37:30;;;;;;;;;;;5.50;66.40;212.10;228463.00;;;;3;75023587;82527138;-59
2022/04/06 12:41:58;;;;;;;;;;;5.50;57.90;212.10;228463.00;;;;3;82527774;82528078;-57
2022/04/06 12:46:40;;;;;;;;;;;5.60;55.60;212.10;228463.00;;;;3;78027102;82527437;-59
2022/04/06 12:51:16;;;;;;;;;;;5.70;49.70;212.10;228463.00;;;;3;75024852;78027905;-56
2022/04/06 12:55:37;;;;;;;;;;;5.70;46.90;212.10;228463.00;;;;3;75026246;84027526;-59
2022/04/06 13:00:07;;;;;;;;;;;5.70;50.00;212.10;228463.00;;;;3;82526994;82528751;-57
2022/04/06 13:04:38;;;;;;;;;;;5.70;56.60;212.10;228463.00;;;;3;78026268;82527655;-56
2022/04/06 13:08:57;;;;;;;;;;;5.90;58.00;212.10;228463.00;;;;3;75025158;78026644;-55
2022/04/06 13:13:17;;;;;;;;;;;6.10;64.50;212.10;228463.00;;;;3;75024618;82526371;-57
2022/04/06 13:17:41;;;;;;;;;;;5.80;68.50;212.10;228463.00;;;;3;82527194;82527857;-56
2022/04/06 13:22:08;;;;;;;;;;;5.70;49.40;212.10;228463.00;;;;3;78027965;82530512;-55
2022/04/06 13:26:27;;;;;;;;;;;5.50;63.40;212.10;228463.00;;;;3;75026097;78028170;-59
2022/04/06 13:30:46;;;;;;;;;;;5.40;74.20;212.10;228463.00;;;;3;75024489;82528723;-54
2022/04/06 13:35:13;;;;;;;;;;;5.40;71.90;212.10;228463.00;;;;3;84026568;84026867;-55
2022/04/06 13:39:40;;;;;;;;;;;5.40;73.70;212.10;228463.00;;;;3;78028354;82526844;-55
2022/04/06 13:43:59;;;;;;;;;;;5.60;75.10;212.10;228463.00;;;;3;75024154;78027909;-57
2022/04/06 13:48:19;;;;;;;;;;;5.50;79.50;212.10;228463.00;;;;3;75024754;82526346;-58
2022/04/06 13:52:43;;;;;;;;;;;5.60;77.80;212.10;228463.00;;;;3;82526365;82527459;-55
2022/04/06 13:57:10;;;;;;;;;;;5.50;80.50;212.10;228463.00;;;;3;78028394;82526384;-56
2022/04/06 14:01:29;;;;;;;;;;;5.30;77.60;212.10;228463.00;;;;3;75027401;78026493;-52
2022/04/06 14:05:48;;;;;;;;;;;5.10;74.90;212.10;228463.00;;;;3;75026180;82528597;-56
2022/04/06 14:10:12;;;;;;;;;;;5.00;78.70;212.10;228463.00;;;;3;82527379;82528723;-55
2022/04/06 14:14:39;;;;;;;;;;;4.90;82.40;212.10;228463.00;;;;3;78026458;82527028;-57
2022/04/06 14:19:00;;;;;;;;;;;5.10;85.90;212.10;228463.00;;;;3;75024997;78028153;-56
2022/04/06 14:23:20;;;;;;;;;;;5.00;89.90;212.10;228463.00;;;;3;75025558;84029796;-58
2022/04/06 14:27:44;;;;;;;;;;;4.80;90.50;212.10;228463.00;;;;3;82528823;82529292;-59
2022/04/06 14:32:11;;;;;;;;;;;4.70;90.80;212.10;228463.00;;;;3;78027719;82526713;-56
2022/04/06 14:36:30;;;;;;;;;;;4.80;91.00;212.10;228463.00;;;;3;75025788;78027589;-54
2022/04/06 14:40:49;;;;;;;;;;;4.90;91.70;212.10;228463.00;;;;3;75025289;82525472;-57
2022/04/06 14:45:14;;;;;;;;;;;4.80;92.10;212.10;228463.00;;;;3;82526821;82527645;-55
2022/04/06 14:49:41;;;;;;;;;;;4.70;92.10;212.10;228463.00;;;;3;78025850;82528605;-55
2022/04/06 14:54:00;;;;;;;;;;;4.40;92.60;212.10;228463.00;;;;3;75025369;78026426;-55
2022/04/06 14:58:19;;;;;;;;;;;4.20;94.00;212.10;228463.00;;;;3;75026557;82526950;-56
2022/04/06 15:02:46;;;;;;;;;;;4.00;94.30;212.10;228463.00;;;;3;84026830;84029310;-57
2022/04/06 15:07:17;;;;;;;;;;;4.00;94.00;212.10;228463.00;;;;3;78028764;82528988;-58
2022/04/06 15:11:36;;;;;;;;;;;4.00;95.50;212.10;228463.00;;;;3;75026538;78029318;-55
2022/04/06 15:15:55;;;;;;;;;;;3.90;96.20;212.10;228463.00;;;;3;75024527;82529032;-53
2022/04/06 15:20:19;;;;;;;;;;;3.90;96.00;212.10;228463.00;;;;3;82528252;82528348;-55
2022/04/06 15:24:46;;;;;;;;;;;3.80;96.70;212.10;228463.00;;;;3;78026097;82529511;-57
2022/04/06 15:29:05;;;;;;;;;;;3.80;97.00;212.10;228463.00;;;;3;75026416;78028328;-56
2022/04/06 15:33:24;;;;;;;;;;;3.70;97.60;212.10;228463.00;;;;3;75025813;82528121;-53
2022/04/06 15:37:48;;;;;;;;;;;3.70;97.70;212.10;228463.00;;;;3;82527459;82527503;-55
2022/04/06 15:42:16;;;;;;;;;;;3.60;98.70;212.10;228463.00;;;;3;78027039;82529794;-55
2022/04/06 15:46:36;;;;;;;;;;;3.60;98.70;212.10;228463.00;;;;3;75025758;78029196;-56
2022/04/06 15:50:57;;;;;;;;;;;3.60;99.00;212.10;228463.00;;;;3;75025180;84028394;-56
2022/04/06 15:55:21;;;;;;;;;;;3.50;99.50;212.10;228463.00;;;;3;82528950;82530076;-56
2022/04/06 15:59:48;;;;;;;;;;;3.50;99.90;212.10;228463.00;;;;3;78027509;82527157;-54
2022/04/06 16:04:07;;;;;;;;;;;3.50;99.80;212.10;228463.00;;;;3;75027987;78027294;-55
2022/04/06 16:08:26;;;;;;;;;;;3.50;99.80;212.10;228463.00;;;;3;75024944;82526841;-55
2022/04/06 16:12:50;;;;;;;;;;;3.50;99.90;212.10;228463.00;;;;3;82526900;82528704;-54
2022/04/06 16:17:16;;;;;;;;;;;2.70;99.90;212.10;228463.00;;;;3;78029241;82529685;-58
2022/04/06 16:21:35;;;;;;;;;;;0.80;99.90;212.10;228463.00;;;;3;75027791;78027747;-56
2022/04/06 16:25:55;;;;;;;;;;;0.10;99.90;212.10;228463.00;;;;3;75025960;82526649;-61
2022/04/06 16:30:21;;;;;;;;;;;-0.10;99.90;212.10;228463.00;;;;3;84027785;84029925;-55
2022/04/06 16:34:49;;;;;;;;;;;-0.30;99.90;212.10;228463.00;;;;3;78025671;82527453;-59
2022/04/06 16:39:08;;;;;;;;;;;-0.40;99.90;212.10;228463.00;;;;3;75025475;78027963;-57
2022/04/06 16:43:27;;;;;;;;;;;-0.50;99.90;212.10;228463.00;;;;3;75026601;82527082;-59
2022/04/06 16:47:51;;;;;;;;;;;-0.50;99.90;212.10;228463.00;;;;3;82527953;82529987;-57
2022/04/06 16:56:56;;;;;;;;;;;-0.50;99.90;212.10;228463.00;;;;3;75026676;78028766;-56
2022/04/06 17:01:17;;;;;;;;;;;-0.50;99.90;212.10;228463.00;;;;3;75026271;82529987;-55
2022/04/06 17:05:42;;;;;;;;;;;-0.70;99.90;212.10;228463.00;;;;3;82528481;82528941;-54
2022/04/06 17:10:08;;;;;;;;;;;-0.80;99.90;212.10;228463.00;;;;3;78030065;82528922;-55
2022/04/06 17:14:29;;;;;;;;;;;-0.90;99.90;212.10;228463.00;;;;3;75027465;78028129;-57
2022/04/06 17:18:50;;;;;;;;;;;-1.10;99.90;212.10;228463.00;;;;3;75027527;84031222;-61
2022/04/06 17:23:14;;;;;;;;;;;-1.10;99.90;212.10;228463.00;;;;3;82528911;82530272;-62
2022/04/06 17:27:40;;;;;;;;;;;-1.10;99.90;212.10;228463.00;;;;3;78027045;82528032;-62
2022/04/06 17:32:00;;;;;;;;;;;-1.10;99.90;212.10;228463.00;;;;3;75023838;77881442;-63
2022/04/06 17:36:19;;;;;;;;;;;-1.10;99.90;212.10;228463.00;;;;3;75024558;82529486;-66
2022/04/06 17:40:42;;;;;;;;;;;-1.10;99.90;212.10;228463.00;;;;3;82526748;82528795;-66
2022/04/06 17:45:10;;;;;;;;;;;-1.10;99.90;212.10;228463.00;;;;3;78027464;82528077;-65
2022/04/06 17:49:29;;;;;;;;;;;-1.10;99.90;212.10;228463.00;;;;3;75025963;78026624;-62
2022/04/06 17:53:48;;;;;;;;;;;-1.20;99.90;212.10;228463.00;;;;3;75025191;82529869;-61
2022/04/06 17:58:15;;;;;;;;;;;-1.30;99.90;212.10;228463.00;;;;3;84027472;84031464;-61
2022/04/06 18:02:42;;;;;;;;;;;-1.40;99.90;212.10;228463.00;;;;3;78029197;82527669;-60
2022/04/06 18:07:01;;;;;;;;;;;-1.40;99.90;212.10;228463.00;;;;3;75024987;78029926;-60
2022/04/06 18:16:03;;;;;;;;;;;-1.60;99.90;212.10;228463.00;;;;3;82526496;82527947;-60
2022/04/06 18:20:31;;;;;;;;;;;-1.60;99.90;212.10;228463.00;;;;3;78028537;82529044;-58
2022/04/06 18:24:50;;;;;;;;;;;-1.70;99.90;212.10;228463.00;;;;3;75025163;78027890;-61
2022/04/06 18:29:12;;;;;;;;;;;-1.80;99.90;212.10;228463.00;;;;3;75024703;82526980;-60
2022/04/06 18:33:36;;;;;;;;;;;-1.80;99.90;212.10;228463.00;;;;3;82526743;82529700;-60
2022/04/06 18:38:02;;;;;;;;;;;-1.90;99.90;212.10;228463.00;;;;3;78027639;82526911;-60
2022/04/06 18:42:24;;;;;;;;;;;-2.00;99.90;212.10;228463.00;;;;3;75025608;78027007;-61
2022/04/06 18:46:44;;;;;;;;;;;-2.10;99.90;212.10;228463.00;;;;3;75024246;84027117;-59
2022/04/06 18:51:08;;;;;;;;;;;-2.10;99.90;212.10;228463.00;;;;3;82527744;82528233;-61
2022/04/06 18:55:35;;;;;;;;;;;-2.10;99.90;212.10;228463.00;;;;3;78027202;82527473;-60
2022/04/06 18:59:54;;;;;;;;;;;-2.10;99.90;212.10;228463.00;;;;3;75026277;78028066;-61
2022/04/06 19:04:13;;;;;;;;;;;-2.10;99.90;212.10;228463.00;;;;3;75024213;82528225;-57
2022/04/06 19:08:37;;;;;;;;;;;-2.10;99.90;212.10;228463.00;;;;3;82526828;82530013;-59
2022/04/06 19:13:04;;;;;;;;;;;-2.20;99.90;212.10;228463.00;;;;3;78027109;82527573;-59
2022/04/06 19:17:23;;;;;;;;;;;-2.20;99.90;212.10;228463.00;;;;3;75025795;78025102;-61
2022/04/06 19:21:42;;;;;;;;;;;-2.20;99.90;212.10;228463.00;;;;3;75025956;82527921;-61
2022/04/06 19:26:11;;;;;;;;;;;-2.30;99.90;212.10;228463.00;;;;3;84028652;84028900;-59
2022/04/06 19:30:38;;;;;;;;;;;-2.30;99.90;212.10;228463.00;;;;3;78027921;82527610;-59
2022/04/06 19:34:57;;;;;;;;;;;-2.40;99.90;212.10;228463.00;;;;3;75025176;78028339;-57
2022/04/06 19:39:16;;;;;;;;;;;-2.40;99.90;212.10;228463.00;;;;3;75023426;82527440;-60
2022/04/06 19:43:39;;;;;;;;;;;-2.50;99.90;212.10;228463.00;;;;3;82526787;82529522;-58
2022/04/06 19:48:07;;;;;;;;;;;-2.50;99.90;212.10;228463.00;;;;3;78028602;82527338;-61
2022/04/06 19:52:27;;;;;;;;;;;-2.50;99.90;212.10;228463.00;;;;3;75026121;78026731;-59
2022/04/06 19:56:46;;;;;;;;;;;-2.60;99.90;212.10;228463.00;;;;3;75024721;82527877;-59
2022/04/06 20:01:09;;;;;;;;;;;-2.60;99.90;212.10;228463.00;;;;3;82527381;82527542;-58
2022/04/06 20:05:36;;;;;;;;;;;-2.70;99.90;212.10;228463.00;;;;3;78026770;82527089;-61
2022/04/06 20:09:57;;;;;;;;;;;-2.70;99.90;212.10;228463.00;;;;3;75026979;78027936;-60
2022/04/06 20:14:18;;;;;;;;;;;-2.80;99.90;212.10;228463.00;;;;3;75026078;84028574;-60
2022/04/06 20:18:42;;;;;;;;;;;-2.80;99.90;212.10;228463.00;;;;3;82526868;82527289;-59
2022/04/06 20:23:09;;;;;;;;;;;-2.90;99.90;212.10;228463.00;;;;3;78026473;82529342;-58
2022/04/06 20:27:28;;;;;;;;;;;-3.00;99.90;212.10;228463.00;;;;3;75023597;78029005;-59
2022/04/06 20:31:48;;;;;;;;;;;-3.10;99.90;212.10;228463.00;;;;3;75026103;82527865;-59
2022/04/06 20:36:12;;;;;;;;;;;-3.10;99.90;212.10;228463.00;;;;3;82526167;82526906;-55
2022/04/06 20:40:39;;;;;;;;;;;-3.10;99.90;212.10;228463.00;;;;3;78026966;82525872;-56